sensor_id;sensor_type;location;lat;lon;timestamp;P1;durP1;ratioP1;P2;durP2;ratioP2
59062;SDS011;44851;45.648;9.004;2024-01-11T00:01:58;24.00;;;18.70;;
59062;SDS011;44851;45.648;9.004;2024-01-11T00:04:23;23.93;;;19.17;;
59062;SDS011;44851;45.648;9.004;2024-01-11T00:06:49;25.07;;;19.27;;
59062;SDS011;44851;45.648;9.004;2024-01-11T00:09:15;26.93;;;20.20;;
59062;SDS011;44851;45.648;9.004;2024-01-11T00:11:41;25.70;;;19.87;;
59062;SDS011;44851;45.648;9.004;2024-01-11T00:14:06;25.27;;;19.73;;
59062;SDS011;44851;45.648;9.004;2024-01-11T00:16:31;25.43;;;19.83;;
59062;SDS011;44851;45.648;9.004;2024-01-11T00:18:57;26.23;;;18.70;;
59062;SDS011;44851;45.648;9.004;2024-01-11T00:21:22;22.63;;;18.80;;
59062;SDS011;44851;45.648;9.004;2024-01-11T00:23:48;23.93;;;19.00;;
59062;SDS011;44851;45.648;9.004;2024-01-11T00:26:14;25.17;;;18.90;;
59062;SDS011;44851;45.648;9.004;2024-01-11T00:28:39;24.20;;;19.37;;
59062;SDS011;44851;45.648;9.004;2024-01-11T00:31:05;24.93;;;19.30;;
59062;SDS011;44851;45.648;9.004;2024-01-11T00:33:32;27.27;;;19.40;;
59062;SDS011;44851;45.648;9.004;2024-01-11T00:35:57;23.27;;;18.03;;
59062;SDS011;44851;45.648;9.004;2024-01-11T00:38:23;24.73;;;19.07;;
59062;SDS011;44851;45.648;9.004;2024-01-11T00:40:48;24.83;;;18.70;;
59062;SDS011;44851;45.648;9.004;2024-01-11T00:43:14;24.07;;;18.80;;
59062;SDS011;44851;45.648;9.004;2024-01-11T00:45:39;26.50;;;19.53;;
59062;SDS011;44851;45.648;9.004;2024-01-11T00:48:05;25.13;;;19.43;;
59062;SDS011;44851;45.648;9.004;2024-01-11T00:50:30;27.27;;;20.23;;
59062;SDS011;44851;45.648;9.004;2024-01-11T00:52:56;24.90;;;19.47;;
59062;SDS011;44851;45.648;9.004;2024-01-11T00:55:21;27.33;;;20.60;;
59062;SDS011;44851;45.648;9.004;2024-01-11T00:57:47;24.77;;;19.13;;
59062;SDS011;44851;45.648;9.004;2024-01-11T01:00:12;25.57;;;19.20;;
59062;SDS011;44851;45.648;9.004;2024-01-11T01:02:41;26.80;;;20.47;;
59062;SDS011;44851;45.648;9.004;2024-01-11T01:05:06;24.80;;;19.43;;
59062;SDS011;44851;45.648;9.004;2024-01-11T01:07:32;26.93;;;19.87;;
59062;SDS011;44851;45.648;9.004;2024-01-11T01:09:57;26.90;;;19.80;;
59062;SDS011;44851;45.648;9.004;2024-01-11T01:12:23;23.97;;;18.13;;
59062;SDS011;44851;45.648;9.004;2024-01-11T01:14:50;27.63;;;19.20;;
59062;SDS011;44851;45.648;9.004;2024-01-11T01:17:15;27.47;;;19.93;;
59062;SDS011;44851;45.648;9.004;2024-01-11T01:19:41;24.93;;;19.57;;
59062;SDS011;44851;45.648;9.004;2024-01-11T01:22:06;25.40;;;19.87;;
59062;SDS011;44851;45.648;9.004;2024-01-11T01:24:31;27.23;;;21.07;;
59062;SDS011;44851;45.648;9.004;2024-01-11T01:26:57;26.33;;;20.47;;
59062;SDS011;44851;45.648;9.004;2024-01-11T01:29:22;29.83;;;21.60;;
59062;SDS011;44851;45.648;9.004;2024-01-11T01:31:47;29.30;;;21.33;;
59062;SDS011;44851;45.648;9.004;2024-01-11T01:34:13;30.00;;;21.13;;
59062;SDS011;44851;45.648;9.004;2024-01-11T01:36:40;28.63;;;21.07;;
59062;SDS011;44851;45.648;9.004;2024-01-11T01:39:05;26.07;;;20.67;;
59062;SDS011;44851;45.648;9.004;2024-01-11T01:41:31;26.43;;;20.00;;
59062;SDS011;44851;45.648;9.004;2024-01-11T01:43:56;27.30;;;19.87;;
59062;SDS011;44851;45.648;9.004;2024-01-11T01:46:22;25.63;;;19.30;;
59062;SDS011;44851;45.648;9.004;2024-01-11T01:48:49;25.83;;;19.07;;
59062;SDS011;44851;45.648;9.004;2024-01-11T01:51:16;27.30;;;20.00;;
59062;SDS011;44851;45.648;9.004;2024-01-11T01:53:41;24.80;;;19.63;;
59062;SDS011;44851;45.648;9.004;2024-01-11T01:56:07;28.07;;;21.23;;
59062;SDS011;44851;45.648;9.004;2024-01-11T01:58:33;25.20;;;20.33;;
59062;SDS011;44851;45.648;9.004;2024-01-11T02:01:00;26.73;;;19.93;;
59062;SDS011;44851;45.648;9.004;2024-01-11T02:03:26;26.07;;;19.63;;
59062;SDS011;44851;45.648;9.004;2024-01-11T02:05:54;28.33;;;19.80;;
59062;SDS011;44851;45.648;9.004;2024-01-11T02:08:20;26.40;;;19.57;;
59062;SDS011;44851;45.648;9.004;2024-01-11T02:10:47;26.10;;;19.60;;
59062;SDS011;44851;45.648;9.004;2024-01-11T02:13:12;27.00;;;20.23;;
59062;SDS011;44851;45.648;9.004;2024-01-11T02:15:38;26.90;;;19.77;;
59062;SDS011;44851;45.648;9.004;2024-01-11T02:18:04;24.43;;;19.00;;
59062;SDS011;44851;45.648;9.004;2024-01-11T02:20:30;26.13;;;19.60;;
59062;SDS011;44851;45.648;9.004;2024-01-11T02:22:57;25.97;;;19.83;;
59062;SDS011;44851;45.648;9.004;2024-01-11T02:25:27;24.10;;;18.37;;
59062;SDS011;44851;45.648;9.004;2024-01-11T02:27:53;27.23;;;20.87;;
59062;SDS011;44851;45.648;9.004;2024-01-11T02:30:18;24.63;;;19.37;;
59062;SDS011;44851;45.648;9.004;2024-01-11T02:32:44;24.87;;;19.37;;
59062;SDS011;44851;45.648;9.004;2024-01-11T02:35:16;24.97;;;18.93;;
59062;SDS011;44851;45.648;9.004;2024-01-11T02:37:43;25.70;;;19.80;;
59062;SDS011;44851;45.648;9.004;2024-01-11T02:40:10;24.07;;;18.97;;
59062;SDS011;44851;45.648;9.004;2024-01-11T02:42:38;25.13;;;19.53;;
59062;SDS011;44851;45.648;9.004;2024-01-11T02:45:03;22.20;;;18.33;;
59062;SDS011;44851;45.648;9.004;2024-01-11T02:47:29;24.53;;;19.73;;
59062;SDS011;44851;45.648;9.004;2024-01-11T02:49:55;24.27;;;19.00;;
59062;SDS011;44851;45.648;9.004;2024-01-11T02:52:21;26.03;;;18.23;;
59062;SDS011;44851;45.648;9.004;2024-01-11T02:54:47;25.47;;;19.40;;
59062;SDS011;44851;45.648;9.004;2024-01-11T02:57:13;24.37;;;18.43;;
59062;SDS011;44851;45.648;9.004;2024-01-11T02:59:39;25.50;;;18.30;;
59062;SDS011;44851;45.648;9.004;2024-01-11T03:02:05;26.57;;;18.73;;
59062;SDS011;44851;45.648;9.004;2024-01-11T03:04:30;24.90;;;19.17;;
59062;SDS011;44851;45.648;9.004;2024-01-11T03:06:55;26.60;;;20.60;;
59062;SDS011;44851;45.648;9.004;2024-01-11T03:09:21;27.40;;;20.37;;
59062;SDS011;44851;45.648;9.004;2024-01-11T03:11:46;26.87;;;20.00;;
59062;SDS011;44851;45.648;9.004;2024-01-11T03:14:11;25.93;;;19.83;;
59062;SDS011;44851;45.648;9.004;2024-01-11T03:16:37;26.30;;;19.00;;
59062;SDS011;44851;45.648;9.004;2024-01-11T03:19:04;25.87;;;20.17;;
59062;SDS011;44851;45.648;9.004;2024-01-11T03:21:30;24.87;;;19.33;;
59062;SDS011;44851;45.648;9.004;2024-01-11T03:23:55;25.83;;;19.20;;
59062;SDS011;44851;45.648;9.004;2024-01-11T03:26:21;25.30;;;19.73;;
59062;SDS011;44851;45.648;9.004;2024-01-11T03:28:46;25.93;;;18.90;;
59062;SDS011;44851;45.648;9.004;2024-01-11T03:31:11;25.60;;;19.70;;
59062;SDS011;44851;45.648;9.004;2024-01-11T03:33:37;25.83;;;19.53;;
59062;SDS011;44851;45.648;9.004;2024-01-11T03:36:06;25.67;;;19.60;;
59062;SDS011;44851;45.648;9.004;2024-01-11T03:38:32;24.83;;;19.30;;
59062;SDS011;44851;45.648;9.004;2024-01-11T03:40:58;24.20;;;19.10;;
59062;SDS011;44851;45.648;9.004;2024-01-11T03:43:23;25.50;;;19.07;;
59062;SDS011;44851;45.648;9.004;2024-01-11T03:45:49;25.47;;;20.03;;
59062;SDS011;44851;45.648;9.004;2024-01-11T03:48:14;25.77;;;19.33;;
59062;SDS011;44851;45.648;9.004;2024-01-11T03:50:39;25.80;;;20.03;;
59062;SDS011;44851;45.648;9.004;2024-01-11T03:53:04;27.33;;;20.17;;
59062;SDS011;44851;45.648;9.004;2024-01-11T03:55:30;24.27;;;19.60;;
59062;SDS011;44851;45.648;9.004;2024-01-11T03:57:55;28.87;;;21.77;;
59062;SDS011;44851;45.648;9.004;2024-01-11T04:00:20;30.07;;;22.33;;
59062;SDS011;44851;45.648;9.004;2024-01-11T04:02:46;29.93;;;21.83;;
59062;SDS011;44851;45.648;9.004;2024-01-11T04:05:11;27.30;;;20.70;;
59062;SDS011;44851;45.648;9.004;2024-01-11T04:07:36;27.67;;;21.17;;
59062;SDS011;44851;45.648;9.004;2024-01-11T04:10:02;28.10;;;21.87;;
59062;SDS011;44851;45.648;9.004;2024-01-11T04:12:27;27.97;;;22.30;;
59062;SDS011;44851;45.648;9.004;2024-01-11T04:14:53;25.77;;;20.43;;
59062;SDS011;44851;45.648;9.004;2024-01-11T04:17:18;27.10;;;20.00;;
59062;SDS011;44851;45.648;9.004;2024-01-11T04:19:44;28.70;;;21.40;;
59062;SDS011;44851;45.648;9.004;2024-01-11T04:22:09;28.67;;;21.40;;
59062;SDS011;44851;45.648;9.004;2024-01-11T04:24:34;29.03;;;21.70;;
59062;SDS011;44851;45.648;9.004;2024-01-11T04:27:00;27.00;;;21.23;;
59062;SDS011;44851;45.648;9.004;2024-01-11T04:29:26;29.03;;;21.43;;
59062;SDS011;44851;45.648;9.004;2024-01-11T04:31:51;25.23;;;20.07;;
59062;SDS011;44851;45.648;9.004;2024-01-11T04:34:16;27.03;;;20.37;;
59062;SDS011;44851;45.648;9.004;2024-01-11T04:36:41;27.77;;;20.30;;
59062;SDS011;44851;45.648;9.004;2024-01-11T04:39:07;26.30;;;20.80;;
59062;SDS011;44851;45.648;9.004;2024-01-11T04:41:34;27.50;;;19.87;;
59062;SDS011;44851;45.648;9.004;2024-01-11T04:44:02;26.37;;;20.27;;
59062;SDS011;44851;45.648;9.004;2024-01-11T04:46:27;29.23;;;20.30;;
59062;SDS011;44851;45.648;9.004;2024-01-11T04:48:52;27.83;;;20.97;;
59062;SDS011;44851;45.648;9.004;2024-01-11T04:51:19;26.47;;;20.37;;
59062;SDS011;44851;45.648;9.004;2024-01-11T04:53:44;28.60;;;21.67;;
59062;SDS011;44851;45.648;9.004;2024-01-11T04:56:12;31.27;;;21.60;;
59062;SDS011;44851;45.648;9.004;2024-01-11T04:58:39;28.57;;;21.33;;
59062;SDS011;44851;45.648;9.004;2024-01-11T05:01:06;25.93;;;19.50;;
59062;SDS011;44851;45.648;9.004;2024-01-11T05:03:31;27.27;;;20.23;;
59062;SDS011;44851;45.648;9.004;2024-01-11T05:05:57;26.37;;;20.30;;
59062;SDS011;44851;45.648;9.004;2024-01-11T05:08:26;29.27;;;20.53;;
59062;SDS011;44851;45.648;9.004;2024-01-11T05:10:52;25.60;;;20.23;;
59062;SDS011;44851;45.648;9.004;2024-01-11T05:13:18;25.13;;;19.17;;
59062;SDS011;44851;45.648;9.004;2024-01-11T05:15:43;27.27;;;19.77;;
59062;SDS011;44851;45.648;9.004;2024-01-11T05:18:09;25.63;;;19.00;;
59062;SDS011;44851;45.648;9.004;2024-01-11T05:20:35;26.47;;;19.30;;
59062;SDS011;44851;45.648;9.004;2024-01-11T05:23:01;26.50;;;19.57;;
59062;SDS011;44851;45.648;9.004;2024-01-11T05:25:26;26.17;;;20.50;;
59062;SDS011;44851;45.648;9.004;2024-01-11T05:27:52;26.83;;;20.23;;
59062;SDS011;44851;45.648;9.004;2024-01-11T05:30:17;27.47;;;20.10;;
59062;SDS011;44851;45.648;9.004;2024-01-11T05:32:42;29.17;;;20.97;;
59062;SDS011;44851;45.648;9.004;2024-01-11T05:35:08;29.47;;;21.27;;
59062;SDS011;44851;45.648;9.004;2024-01-11T05:37:35;32.63;;;21.67;;
59062;SDS011;44851;45.648;9.004;2024-01-11T05:40:00;28.00;;;21.07;;
59062;SDS011;44851;45.648;9.004;2024-01-11T05:42:26;31.10;;;22.93;;
59062;SDS011;44851;45.648;9.004;2024-01-11T05:44:51;29.10;;;22.70;;
59062;SDS011;44851;45.648;9.004;2024-01-11T05:47:17;31.27;;;22.73;;
59062;SDS011;44851;45.648;9.004;2024-01-11T05:49:42;33.13;;;23.33;;
59062;SDS011;44851;45.648;9.004;2024-01-11T05:52:07;31.07;;;22.97;;
59062;SDS011;44851;45.648;9.004;2024-01-11T05:54:33;34.47;;;23.70;;
59062;SDS011;44851;45.648;9.004;2024-01-11T05:56:58;36.50;;;23.43;;
59062;SDS011;44851;45.648;9.004;2024-01-11T05:59:24;31.03;;;22.87;;
59062;SDS011;44851;45.648;9.004;2024-01-11T06:01:50;29.80;;;22.60;;
59062;SDS011;44851;45.648;9.004;2024-01-11T06:04:15;28.07;;;20.23;;
59062;SDS011;44851;45.648;9.004;2024-01-11T06:06:41;29.30;;;22.37;;
59062;SDS011;44851;45.648;9.004;2024-01-11T06:09:07;28.43;;;22.13;;
59062;SDS011;44851;45.648;9.004;2024-01-11T06:11:33;28.73;;;20.97;;
59062;SDS011;44851;45.648;9.004;2024-01-11T06:13:58;28.27;;;21.90;;
59062;SDS011;44851;45.648;9.004;2024-01-11T06:16:24;30.17;;;21.57;;
59062;SDS011;44851;45.648;9.004;2024-01-11T06:18:50;27.57;;;21.73;;
59062;SDS011;44851;45.648;9.004;2024-01-11T06:21:15;26.70;;;20.83;;
59062;SDS011;44851;45.648;9.004;2024-01-11T06:23:42;31.43;;;23.53;;
59062;SDS011;44851;45.648;9.004;2024-01-11T06:26:10;29.57;;;22.30;;
59062;SDS011;44851;45.648;9.004;2024-01-11T06:28:35;29.87;;;23.00;;
59062;SDS011;44851;45.648;9.004;2024-01-11T06:31:01;30.33;;;23.23;;
59062;SDS011;44851;45.648;9.004;2024-01-11T06:33:26;30.13;;;22.77;;
59062;SDS011;44851;45.648;9.004;2024-01-11T06:35:52;31.30;;;21.87;;
59062;SDS011;44851;45.648;9.004;2024-01-11T06:38:17;29.63;;;22.80;;
59062;SDS011;44851;45.648;9.004;2024-01-11T06:40:43;31.50;;;23.87;;
59062;SDS011;44851;45.648;9.004;2024-01-11T06:43:08;34.47;;;23.10;;
59062;SDS011;44851;45.648;9.004;2024-01-11T06:45:34;29.67;;;22.87;;
59062;SDS011;44851;45.648;9.004;2024-01-11T06:48:00;31.60;;;22.83;;
59062;SDS011;44851;45.648;9.004;2024-01-11T06:50:25;33.67;;;24.40;;
59062;SDS011;44851;45.648;9.004;2024-01-11T06:52:51;34.03;;;25.23;;
59062;SDS011;44851;45.648;9.004;2024-01-11T06:55:16;33.77;;;24.63;;
59062;SDS011;44851;45.648;9.004;2024-01-11T06:57:41;32.30;;;24.73;;
59062;SDS011;44851;45.648;9.004;2024-01-11T07:00:07;32.67;;;23.73;;
59062;SDS011;44851;45.648;9.004;2024-01-11T07:02:32;37.53;;;25.53;;
59062;SDS011;44851;45.648;9.004;2024-01-11T07:04:58;34.37;;;24.83;;
59062;SDS011;44851;45.648;9.004;2024-01-11T07:07:23;33.07;;;24.80;;
59062;SDS011;44851;45.648;9.004;2024-01-11T07:09:48;33.53;;;24.60;;
59062;SDS011;44851;45.648;9.004;2024-01-11T07:12:14;31.87;;;23.07;;
59062;SDS011;44851;45.648;9.004;2024-01-11T07:14:39;32.90;;;22.53;;
59062;SDS011;44851;45.648;9.004;2024-01-11T07:17:04;29.63;;;23.13;;
59062;SDS011;44851;45.648;9.004;2024-01-11T07:19:30;30.40;;;23.43;;
59062;SDS011;44851;45.648;9.004;2024-01-11T07:21:56;32.93;;;24.23;;
59062;SDS011;44851;45.648;9.004;2024-01-11T07:24:21;34.53;;;25.50;;
59062;SDS011;44851;45.648;9.004;2024-01-11T07:26:46;30.73;;;23.83;;
59062;SDS011;44851;45.648;9.004;2024-01-11T07:29:12;36.87;;;25.30;;
59062;SDS011;44851;45.648;9.004;2024-01-11T07:31:37;30.97;;;24.13;;
59062;SDS011;44851;45.648;9.004;2024-01-11T07:34:03;35.17;;;25.80;;
59062;SDS011;44851;45.648;9.004;2024-01-11T07:36:28;36.70;;;26.20;;
59062;SDS011;44851;45.648;9.004;2024-01-11T07:38:53;34.13;;;25.97;;
59062;SDS011;44851;45.648;9.004;2024-01-11T07:41:21;33.70;;;26.20;;
59062;SDS011;44851;45.648;9.004;2024-01-11T07:43:46;35.77;;;25.83;;
59062;SDS011;44851;45.648;9.004;2024-01-11T07:46:12;36.97;;;26.97;;
59062;SDS011;44851;45.648;9.004;2024-01-11T07:48:37;37.03;;;27.23;;
59062;SDS011;44851;45.648;9.004;2024-01-11T07:51:03;37.73;;;26.63;;
59062;SDS011;44851;45.648;9.004;2024-01-11T07:53:29;35.90;;;25.80;;
59062;SDS011;44851;45.648;9.004;2024-01-11T07:55:56;37.97;;;26.83;;
59062;SDS011;44851;45.648;9.004;2024-01-11T07:58:22;43.40;;;28.20;;
59062;SDS011;44851;45.648;9.004;2024-01-11T08:00:47;37.90;;;27.03;;
59062;SDS011;44851;45.648;9.004;2024-01-11T08:03:13;36.20;;;26.20;;
59062;SDS011;44851;45.648;9.004;2024-01-11T08:05:39;35.57;;;25.87;;
59062;SDS011;44851;45.648;9.004;2024-01-11T08:08:04;36.67;;;26.80;;
59062;SDS011;44851;45.648;9.004;2024-01-11T08:10:30;33.30;;;25.93;;
59062;SDS011;44851;45.648;9.004;2024-01-11T08:12:58;35.00;;;27.83;;
59062;SDS011;44851;45.648;9.004;2024-01-11T08:15:25;36.57;;;26.50;;
59062;SDS011;44851;45.648;9.004;2024-01-11T08:17:50;35.63;;;27.00;;
59062;SDS011;44851;45.648;9.004;2024-01-11T08:20:15;34.50;;;25.93;;
59062;SDS011;44851;45.648;9.004;2024-01-11T08:22:44;34.00;;;25.20;;
59062;SDS011;44851;45.648;9.004;2024-01-11T08:25:11;37.30;;;26.03;;
59062;SDS011;44851;45.648;9.004;2024-01-11T08:27:38;36.33;;;27.17;;
59062;SDS011;44851;45.648;9.004;2024-01-11T08:30:03;41.03;;;29.17;;
59062;SDS011;44851;45.648;9.004;2024-01-11T08:32:29;38.40;;;29.20;;
59062;SDS011;44851;45.648;9.004;2024-01-11T08:34:56;36.03;;;28.50;;
59062;SDS011;44851;45.648;9.004;2024-01-11T08:37:22;37.93;;;28.07;;
59062;SDS011;44851;45.648;9.004;2024-01-11T08:39:48;37.53;;;27.90;;
59062;SDS011;44851;45.648;9.004;2024-01-11T08:42:13;39.67;;;26.97;;
59062;SDS011;44851;45.648;9.004;2024-01-11T08:44:43;39.83;;;27.20;;
59062;SDS011;44851;45.648;9.004;2024-01-11T08:47:08;39.50;;;28.63;;
59062;SDS011;44851;45.648;9.004;2024-01-11T08:49:36;38.27;;;28.47;;
59062;SDS011;44851;45.648;9.004;2024-01-11T08:52:01;39.57;;;28.40;;
59062;SDS011;44851;45.648;9.004;2024-01-11T08:54:27;38.00;;;29.40;;
59062;SDS011;44851;45.648;9.004;2024-01-11T08:56:53;39.63;;;28.30;;
59062;SDS011;44851;45.648;9.004;2024-01-11T08:59:18;37.80;;;28.80;;
59062;SDS011;44851;45.648;9.004;2024-01-11T09:01:43;32.27;;;25.80;;
59062;SDS011;44851;45.648;9.004;2024-01-11T09:04:09;30.53;;;24.63;;
59062;SDS011;44851;45.648;9.004;2024-01-11T09:06:34;34.60;;;26.37;;
59062;SDS011;44851;45.648;9.004;2024-01-11T09:08:59;30.90;;;25.17;;
59062;SDS011;44851;45.648;9.004;2024-01-11T09:11:25;29.77;;;23.73;;
59062;SDS011;44851;45.648;9.004;2024-01-11T09:13:50;31.87;;;25.43;;
59062;SDS011;44851;45.648;9.004;2024-01-11T09:16:16;31.53;;;25.07;;
59062;SDS011;44851;45.648;9.004;2024-01-11T09:18:42;32.77;;;25.23;;
59062;SDS011;44851;45.648;9.004;2024-01-11T09:21:08;32.73;;;24.60;;
59062;SDS011;44851;45.648;9.004;2024-01-11T09:23:34;29.67;;;24.07;;
59062;SDS011;44851;45.648;9.004;2024-01-11T09:26:00;31.97;;;25.23;;
59062;SDS011;44851;45.648;9.004;2024-01-11T09:28:25;30.80;;;25.33;;
59062;SDS011;44851;45.648;9.004;2024-01-11T09:30:50;33.17;;;26.77;;
59062;SDS011;44851;45.648;9.004;2024-01-11T09:33:16;30.33;;;25.73;;
59062;SDS011;44851;45.648;9.004;2024-01-11T09:35:41;31.00;;;25.87;;
59062;SDS011;44851;45.648;9.004;2024-01-11T09:38:07;29.83;;;24.93;;
59062;SDS011;44851;45.648;9.004;2024-01-11T09:40:32;30.70;;;24.67;;
59062;SDS011;44851;45.648;9.004;2024-01-11T09:42:58;30.57;;;25.90;;
59062;SDS011;44851;45.648;9.004;2024-01-11T09:45:23;30.40;;;25.53;;
59062;SDS011;44851;45.648;9.004;2024-01-11T09:47:50;36.80;;;25.63;;
59062;SDS011;44851;45.648;9.004;2024-01-11T09:50:17;29.33;;;24.23;;
59062;SDS011;44851;45.648;9.004;2024-01-11T09:52:46;30.60;;;25.03;;
59062;SDS011;44851;45.648;9.004;2024-01-11T09:55:16;35.00;;;28.43;;
59062;SDS011;44851;45.648;9.004;2024-01-11T09:57:46;31.07;;;27.40;;
59062;SDS011;44851;45.648;9.004;2024-01-11T10:00:19;37.83;;;29.33;;
59062;SDS011;44851;45.648;9.004;2024-01-11T10:02:48;32.87;;;28.27;;
59062;SDS011;44851;45.648;9.004;2024-01-11T10:05:15;31.00;;;26.53;;
59062;SDS011;44851;45.648;9.004;2024-01-11T10:07:42;31.20;;;25.83;;
59062;SDS011;44851;45.648;9.004;2024-01-11T10:10:07;30.60;;;25.83;;
59062;SDS011;44851;45.648;9.004;2024-01-11T10:12:36;29.13;;;25.60;;
59062;SDS011;44851;45.648;9.004;2024-01-11T10:15:06;32.93;;;25.83;;
59062;SDS011;44851;45.648;9.004;2024-01-11T10:17:41;31.27;;;26.23;;
59062;SDS011;44851;45.648;9.004;2024-01-11T10:20:09;32.97;;;27.47;;
59062;SDS011;44851;45.648;9.004;2024-01-11T10:22:38;29.40;;;25.90;;
59062;SDS011;44851;45.648;9.004;2024-01-11T10:25:12;29.90;;;25.90;;
59062;SDS011;44851;45.648;9.004;2024-01-11T10:27:42;30.43;;;26.17;;
59062;SDS011;44851;45.648;9.004;2024-01-11T10:30:13;31.57;;;26.07;;
59062;SDS011;44851;45.648;9.004;2024-01-11T10:32:44;30.37;;;26.03;;
59062;SDS011;44851;45.648;9.004;2024-01-11T10:35:10;31.17;;;24.90;;
59062;SDS011;44851;45.648;9.004;2024-01-11T10:37:36;30.60;;;27.30;;
59062;SDS011;44851;45.648;9.004;2024-01-11T10:40:04;30.93;;;26.47;;
59062;SDS011;44851;45.648;9.004;2024-01-11T10:42:35;33.87;;;27.47;;
59062;SDS011;44851;45.648;9.004;2024-01-11T10:45:04;32.07;;;26.50;;
59062;SDS011;44851;45.648;9.004;2024-01-11T10:47:38;29.30;;;25.17;;
59062;SDS011;44851;45.648;9.004;2024-01-11T10:50:10;33.33;;;26.33;;
59062;SDS011;44851;45.648;9.004;2024-01-11T10:52:43;28.90;;;25.80;;
59062;SDS011;44851;45.648;9.004;2024-01-11T10:55:19;31.00;;;24.93;;
59062;SDS011;44851;45.648;9.004;2024-01-11T10:57:46;29.77;;;25.43;;
59062;SDS011;44851;45.648;9.004;2024-01-11T11:00:13;28.53;;;23.97;;
59062;SDS011;44851;45.648;9.004;2024-01-11T11:02:39;31.73;;;24.67;;
59062;SDS011;44851;45.648;9.004;2024-01-11T11:05:06;27.23;;;24.23;;
59062;SDS011;44851;45.648;9.004;2024-01-11T11:07:35;30.67;;;25.57;;
59062;SDS011;44851;45.648;9.004;2024-01-11T11:10:02;30.07;;;24.97;;
59062;SDS011;44851;45.648;9.004;2024-01-11T11:12:30;26.53;;;23.23;;
59062;SDS011;44851;45.648;9.004;2024-01-11T11:14:57;27.00;;;23.03;;
59062;SDS011;44851;45.648;9.004;2024-01-11T11:17:24;27.57;;;24.57;;
59062;SDS011;44851;45.648;9.004;2024-01-11T11:19:50;29.50;;;24.23;;
59062;SDS011;44851;45.648;9.004;2024-01-11T11:22:17;28.90;;;24.57;;
59062;SDS011;44851;45.648;9.004;2024-01-11T11:24:44;24.73;;;22.03;;
59062;SDS011;44851;45.648;9.004;2024-01-11T11:27:12;26.70;;;22.63;;
59062;SDS011;44851;45.648;9.004;2024-01-11T11:29:39;25.60;;;22.90;;
59062;SDS011;44851;45.648;9.004;2024-01-11T11:32:04;27.67;;;22.30;;
59062;SDS011;44851;45.648;9.004;2024-01-11T11:34:40;25.53;;;22.83;;
59062;SDS011;44851;45.648;9.004;2024-01-11T11:37:07;25.53;;;22.27;;
59062;SDS011;44851;45.648;9.004;2024-01-11T11:39:34;25.40;;;22.53;;
59062;SDS011;44851;45.648;9.004;2024-01-11T11:41:59;26.67;;;22.70;;
59062;SDS011;44851;45.648;9.004;2024-01-11T11:44:26;28.27;;;23.77;;
59062;SDS011;44851;45.648;9.004;2024-01-11T11:46:51;25.53;;;22.33;;
59062;SDS011;44851;45.648;9.004;2024-01-11T11:49:17;25.63;;;22.50;;
59062;SDS011;44851;45.648;9.004;2024-01-11T11:51:42;25.83;;;23.00;;
59062;SDS011;44851;45.648;9.004;2024-01-11T11:54:08;26.57;;;22.23;;
59062;SDS011;44851;45.648;9.004;2024-01-11T11:56:39;24.73;;;22.03;;
59062;SDS011;44851;45.648;9.004;2024-01-11T11:59:06;22.97;;;20.20;;
59062;SDS011;44851;45.648;9.004;2024-01-11T12:01:31;21.23;;;18.57;;
59062;SDS011;44851;45.648;9.004;2024-01-11T12:03:57;18.83;;;16.83;;
59062;SDS011;44851;45.648;9.004;2024-01-11T12:06:22;17.67;;;15.77;;
59062;SDS011;44851;45.648;9.004;2024-01-11T12:08:49;17.17;;;15.33;;
59062;SDS011;44851;45.648;9.004;2024-01-11T12:11:18;18.40;;;16.33;;
59062;SDS011;44851;45.648;9.004;2024-01-11T12:13:46;17.97;;;16.07;;
59062;SDS011;44851;45.648;9.004;2024-01-11T12:16:14;17.53;;;15.63;;
59062;SDS011;44851;45.648;9.004;2024-01-11T12:18:40;18.27;;;16.37;;
59062;SDS011;44851;45.648;9.004;2024-01-11T12:21:06;18.73;;;16.40;;
59062;SDS011;44851;45.648;9.004;2024-01-11T12:23:32;20.00;;;17.87;;
59062;SDS011;44851;45.648;9.004;2024-01-11T12:26:03;20.37;;;17.57;;
59062;SDS011;44851;45.648;9.004;2024-01-11T12:28:32;20.20;;;17.43;;
59062;SDS011;44851;45.648;9.004;2024-01-11T12:30:58;20.80;;;18.60;;
59062;SDS011;44851;45.648;9.004;2024-01-11T12:33:23;18.87;;;16.87;;
59062;SDS011;44851;45.648;9.004;2024-01-11T12:35:51;20.00;;;17.70;;
59062;SDS011;44851;45.648;9.004;2024-01-11T12:38:16;19.20;;;17.13;;
59062;SDS011;44851;45.648;9.004;2024-01-11T12:40:42;21.53;;;17.63;;
59062;SDS011;44851;45.648;9.004;2024-01-11T12:43:07;18.43;;;16.23;;
59062;SDS011;44851;45.648;9.004;2024-01-11T12:45:34;18.50;;;16.60;;
59062;SDS011;44851;45.648;9.004;2024-01-11T12:48:00;18.43;;;16.50;;
59062;SDS011;44851;45.648;9.004;2024-01-11T12:50:27;19.07;;;17.07;;
59062;SDS011;44851;45.648;9.004;2024-01-11T12:55:43;18.93;;;16.73;;
59062;SDS011;44851;45.648;9.004;2024-01-11T12:58:12;18.67;;;16.47;;
59062;SDS011;44851;45.648;9.004;2024-01-11T13:00:38;19.50;;;17.37;;
59062;SDS011;44851;45.648;9.004;2024-01-11T13:03:04;18.43;;;16.43;;
59062;SDS011;44851;45.648;9.004;2024-01-11T13:05:30;17.27;;;15.43;;
59062;SDS011;44851;45.648;9.004;2024-01-11T13:08:00;17.73;;;15.60;;
59062;SDS011;44851;45.648;9.004;2024-01-11T13:10:44;19.07;;;15.60;;
59062;SDS011;44851;45.648;9.004;2024-01-11T13:13:09;17.57;;;14.83;;
59062;SDS011;44851;45.648;9.004;2024-01-11T13:15:34;16.77;;;15.07;;
59062;SDS011;44851;45.648;9.004;2024-01-11T13:18:01;16.13;;;14.43;;
59062;SDS011;44851;45.648;9.004;2024-01-11T13:20:27;15.60;;;13.90;;
59062;SDS011;44851;45.648;9.004;2024-01-11T13:23:15;15.83;;;14.00;;
59062;SDS011;44851;45.648;9.004;2024-01-11T13:25:46;14.87;;;13.27;;
59062;SDS011;44851;45.648;9.004;2024-01-11T13:28:12;15.50;;;13.80;;
59062;SDS011;44851;45.648;9.004;2024-01-11T13:30:38;14.93;;;13.30;;
59062;SDS011;44851;45.648;9.004;2024-01-11T13:33:07;19.37;;;15.77;;
59062;SDS011;44851;45.648;9.004;2024-01-11T13:35:34;16.00;;;14.30;;
59062;SDS011;44851;45.648;9.004;2024-01-11T13:38:00;15.80;;;13.70;;
59062;SDS011;44851;45.648;9.004;2024-01-11T13:40:25;15.33;;;13.60;;
59062;SDS011;44851;45.648;9.004;2024-01-11T13:42:53;16.20;;;13.87;;
59062;SDS011;44851;45.648;9.004;2024-01-11T13:45:20;15.10;;;13.60;;
59062;SDS011;44851;45.648;9.004;2024-01-11T13:47:46;15.23;;;13.63;;
59062;SDS011;44851;45.648;9.004;2024-01-11T13:50:11;19.37;;;15.90;;
59062;SDS011;44851;45.648;9.004;2024-01-11T13:52:37;16.87;;;15.10;;
59062;SDS011;44851;45.648;9.004;2024-01-11T13:55:02;18.27;;;16.37;;
59062;SDS011;44851;45.648;9.004;2024-01-11T13:57:28;16.13;;;14.27;;
59062;SDS011;44851;45.648;9.004;2024-01-11T13:59:54;16.50;;;14.67;;
59062;SDS011;44851;45.648;9.004;2024-01-11T14:02:19;42.83;;;34.97;;
59062;SDS011;44851;45.648;9.004;2024-01-11T14:04:44;102.03;;;73.53;;
59062;SDS011;44851;45.648;9.004;2024-01-11T14:07:10;22.87;;;18.83;;
59062;SDS011;44851;45.648;9.004;2024-01-11T14:09:35;15.53;;;13.10;;
59062;SDS011;44851;45.648;9.004;2024-01-11T14:12:01;15.37;;;13.17;;
59062;SDS011;44851;45.648;9.004;2024-01-11T14:14:26;16.93;;;14.50;;
59062;SDS011;44851;45.648;9.004;2024-01-11T14:16:51;17.50;;;15.60;;
59062;SDS011;44851;45.648;9.004;2024-01-11T14:19:17;18.40;;;16.53;;